createdAt,value
2018-11-22T00:02:41.812Z,7.21
2018-11-22T00:06:45.533Z,7.19
2018-11-22T00:10:31.538Z,7.29
2018-11-22T00:14:16.657Z,7.11
2018-11-22T00:18:02.018Z,7.12
2018-11-22T00:21:47.507Z,7.20
2018-11-22T00:25:32.652Z,7.20
2018-11-22T00:29:17.766Z,7.19
2018-11-22T00:33:02.946Z,7.22
2018-11-22T00:37:06.699Z,7.17
2018-11-22T00:40:51.847Z,7.30
2018-11-22T00:44:37.283Z,7.25
2018-11-22T00:48:22.705Z,7.27
2018-11-22T00:52:07.896Z,7.38
2018-11-22T00:56:11.886Z,7.26
2018-11-22T00:59:57.016Z,7.15
2018-11-22T01:03:42.135Z,7.21
2018-11-22T01:07:45.824Z,7.20
2018-11-22T01:15:27.253Z,7.12
2018-11-22T01:19:12.388Z,7.20
2018-11-22T01:22:59.104Z,7.15
2018-11-22T01:26:44.227Z,7.35
2018-11-22T01:30:29.345Z,7.34
2018-11-22T01:34:14.477Z,7.29
2018-11-22T01:37:59.989Z,7.22
2018-11-22T01:41:45.122Z,7.26
2018-11-22T01:45:30.257Z,7.31
2018-11-22T01:49:15.428Z,7.21
2018-11-22T01:53:00.551Z,7.18
2018-11-22T01:56:45.790Z,7.33
2018-11-22T02:00:31.183Z,7.21
2018-11-22T02:04:16.316Z,7.28
2018-11-22T02:08:20.042Z,7.24
2018-11-22T02:12:05.191Z,7.24
2018-11-22T02:15:50.326Z,7.18
2018-11-22T02:19:54.628Z,7.19
2018-11-22T02:23:39.756Z,7.27
2018-11-22T02:27:43.701Z,7.22
2018-11-22T02:31:28.828Z,7.24
2018-11-22T02:35:14.590Z,7.25
2018-11-22T02:38:59.738Z,7.33
2018-11-22T02:42:45.760Z,7.43
2018-11-22T02:46:30.888Z,7.20
2018-11-22T02:50:17.463Z,7.16
2018-11-22T02:54:02.553Z,7.17
2018-11-22T02:57:47.763Z,7.28
2018-11-22T03:01:51.442Z,7.30
2018-11-22T03:05:36.632Z,7.19
2018-11-22T03:09:22.027Z,7.16
2018-11-22T03:13:26.822Z,7.22
2018-11-22T03:16:52.986Z,7.28
2018-11-22T03:20:38.078Z,7.22
2018-11-22T03:24:23.211Z,7.17
2018-11-22T03:28:08.346Z,7.38
2018-11-22T03:31:53.466Z,7.26
2018-11-22T03:35:38.598Z,7.25
2018-11-22T03:39:23.733Z,7.24
2018-11-22T03:43:08.873Z,7.11
2018-11-22T03:46:53.989Z,7.21
2018-11-22T03:50:39.107Z,7.21
2018-11-22T03:54:42.763Z,7.25
2018-11-22T03:58:28.555Z,7.35
2018-11-22T04:02:13.662Z,7.24
2018-11-22T04:05:58.799Z,7.32
2018-11-22T04:10:02.464Z,7.21
2018-11-22T04:13:48.068Z,7.19
2018-11-22T04:17:33.488Z,7.12
2018-11-22T04:21:18.620Z,7.28
2018-11-22T04:25:03.768Z,7.13
2018-11-22T04:29:07.578Z,7.26
2018-11-22T04:32:53.316Z,7.32
2018-11-22T04:36:39.223Z,7.23
2018-11-22T04:40:25.502Z,7.15
2018-11-22T04:44:10.663Z,7.22
2018-11-22T04:47:57.414Z,7.34
2018-11-22T04:51:42.528Z,7.16
2018-11-22T04:55:27.680Z,7.21
2018-11-22T04:59:12.801Z,7.17
2018-11-22T05:02:57.910Z,7.24
2018-11-22T05:06:43.069Z,7.39
2018-11-22T05:10:29.396Z,7.33
2018-11-22T05:14:14.544Z,7.33
2018-11-22T05:18:00.019Z,7.28
2018-11-22T05:21:45.241Z,7.33
2018-11-22T05:25:30.384Z,7.29
2018-11-22T05:29:15.879Z,7.27
2018-11-22T05:33:01.352Z,7.36
2018-11-22T05:36:46.508Z,7.40
2018-11-22T05:40:31.962Z,7.34
2018-11-22T05:44:35.700Z,7.27
2018-11-22T05:48:20.829Z,7.28
2018-11-22T05:52:06.615Z,7.41
2018-11-22T05:55:51.363Z,7.29
2018-11-22T05:59:36.528Z,7.31
2018-11-22T06:03:22.057Z,7.31
2018-11-22T06:06:59.668Z,7.48
2018-11-22T06:10:45.347Z,7.32
2018-11-22T06:14:30.801Z,7.22
2018-11-22T06:18:34.476Z,7.23
2018-11-22T06:22:19.696Z,7.28
2018-11-22T06:26:04.862Z,7.25
2018-11-22T06:29:49.983Z,7.19
2018-11-22T06:33:35.442Z,7.25
2018-11-22T06:37:20.579Z,7.28
2018-11-22T06:41:05.717Z,7.21
2018-11-22T06:44:51.114Z,7.08
2018-11-22T06:48:36.216Z,7.20
2018-11-22T06:52:21.328Z,7.22
2018-11-22T06:56:06.796Z,7.22
2018-11-22T06:59:51.918Z,7.11
2018-11-22T07:03:37.043Z,7.24
2018-11-22T07:07:22.190Z,7.19
2018-11-22T07:11:07.392Z,7.30
2018-11-22T07:14:52.604Z,7.26
2018-11-22T07:18:56.316Z,7.37
2018-11-22T07:23:00.030Z,7.43
2018-11-22T07:26:45.450Z,7.18
2018-11-22T07:30:32.239Z,7.26
2018-11-22T07:34:17.402Z,7.24
2018-11-22T07:38:03.217Z,7.30
2018-11-22T07:41:48.630Z,7.32
2018-11-22T07:45:35.459Z,7.53
2018-11-22T07:49:20.621Z,7.52
2018-11-22T07:53:05.808Z,7.43
2018-11-22T07:56:51.002Z,7.62
2018-11-22T08:00:38.131Z,7.63
2018-11-22T08:04:41.843Z,7.75
2018-11-22T08:08:27.021Z,7.71
2018-11-22T08:12:12.321Z,7.56
2018-11-22T08:15:57.332Z,7.73
2018-11-22T08:19:42.539Z,7.65
2018-11-22T08:23:46.615Z,7.80
2018-11-22T08:27:31.792Z,7.87
2018-11-22T08:31:16.978Z,8.03
2018-11-22T08:35:02.189Z,8.11
2018-11-22T08:38:47.607Z,8.19
2018-11-22T08:42:32.788Z,8.27
2018-11-22T08:46:17.918Z,8.13
2018-11-22T08:50:03.499Z,8.19
2018-11-22T08:53:48.702Z,8.33
2018-11-22T08:57:33.943Z,8.67
2018-11-22T09:01:19.142Z,8.55
2018-11-22T09:05:04.331Z,8.71
2018-11-22T09:08:49.455Z,9.00
2018-11-22T09:12:34.599Z,9.20
2018-11-22T09:16:19.814Z,9.12
2018-11-22T09:20:05.014Z,8.96
2018-11-22T09:23:50.172Z,9.02
2018-11-22T09:27:35.442Z,9.15
2018-11-22T09:31:20.705Z,9.18
2018-11-22T09:35:06.224Z,9.31
2018-11-22T09:38:51.606Z,9.29
2018-11-22T09:42:36.831Z,9.30
2018-11-22T09:46:22.043Z,8.95
2018-11-22T09:50:07.515Z,8.77
2018-11-22T09:54:11.192Z,8.54
2018-11-22T09:58:14.846Z,8.67
2018-11-22T10:02:18.538Z,8.72
2018-11-22T10:06:03.736Z,8.75
2018-11-22T10:09:48.836Z,8.51
2018-11-22T10:13:33.997Z,9.11
2018-11-22T10:17:19.157Z,8.99
2018-11-22T10:21:04.595Z,9.10
2018-11-22T10:24:49.764Z,9.12
2018-11-22T10:28:34.879Z,9.02
2018-11-22T10:32:20.009Z,8.89
2018-11-22T10:36:05.146Z,9.11
2018-11-22T10:40:08.850Z,9.23
2018-11-22T10:43:53.952Z,9.00
2018-11-22T10:47:39.374Z,9.06
2018-11-22T10:51:24.510Z,8.59
2018-11-22T10:55:11.448Z,8.53
2018-11-22T10:58:56.553Z,8.71
2018-11-22T11:03:00.217Z,8.81
2018-11-22T11:07:03.901Z,8.88
2018-11-22T11:11:07.586Z,8.94
2018-11-22T11:14:52.796Z,9.08
2018-11-22T11:18:37.889Z,8.69
2018-11-22T11:22:22.998Z,8.57
2018-11-22T11:26:08.151Z,8.48
2018-11-22T11:30:11.836Z,8.71
2018-11-22T11:33:57.289Z,8.99
2018-11-22T11:37:42.510Z,8.78
2018-11-22T11:41:27.685Z,9.14
2018-11-22T11:45:12.902Z,9.02
2018-11-22T11:48:58.169Z,8.80
2018-11-22T11:52:43.433Z,8.95
2018-11-22T11:56:28.547Z,8.93
2018-11-22T12:00:51.500Z,8.85
2018-11-22T12:04:36.674Z,8.79
2018-11-22T12:08:22.099Z,8.91
2018-11-22T12:12:07.421Z,9.30
2018-11-22T12:15:52.704Z,8.99
2018-11-22T12:19:38.008Z,9.25
2018-11-22T12:23:24.374Z,9.30
2018-11-22T12:27:09.882Z,9.59
2018-11-22T12:30:55.307Z,9.79
2018-11-22T12:34:59.283Z,9.75
2018-11-22T12:38:45.256Z,9.70
2018-11-22T12:42:30.394Z,9.59
2018-11-22T12:46:15.578Z,9.54
2018-11-22T12:50:01.774Z,9.65
2018-11-22T12:54:05.382Z,9.84
2018-11-22T12:57:50.628Z,9.78
2018-11-22T13:01:54.314Z,9.81
2018-11-22T13:05:39.430Z,9.79
2018-11-22T13:09:24.553Z,9.61
2018-11-22T13:13:28.231Z,9.74
2018-11-22T13:17:31.935Z,9.88
2018-11-22T13:21:17.141Z,9.85
2018-11-22T13:25:02.283Z,10.12
2018-11-22T13:28:47.409Z,9.67
2018-11-22T13:32:32.534Z,9.92
2018-11-22T13:36:17.670Z,9.95
2018-11-22T13:40:02.777Z,9.91
2018-11-22T13:44:06.460Z,9.76
2018-11-22T13:47:52.913Z,9.52
2018-11-22T13:51:38.051Z,9.79
2018-11-22T13:55:23.162Z,9.71
2018-11-22T13:59:08.313Z,9.50
2018-11-22T14:02:54.983Z,9.64
2018-11-22T14:06:40.113Z,9.62
2018-11-22T14:10:25.244Z,9.46
2018-11-22T14:14:10.378Z,9.62
2018-11-22T14:17:57.245Z,9.50
2018-11-22T14:21:42.475Z,9.49
2018-11-22T14:25:27.682Z,9.62
2018-11-22T14:29:13.211Z,9.49
2018-11-22T14:32:58.364Z,9.50
2018-11-22T14:36:43.977Z,9.63
2018-11-22T14:40:30.903Z,9.80
2018-11-22T14:44:16.028Z,10.15
2018-11-22T14:48:19.703Z,10.18
2018-11-22T14:52:04.854Z,10.36
2018-11-22T14:55:49.986Z,10.64
2018-11-22T14:59:35.559Z,10.65
2018-11-22T15:03:20.979Z,10.50
2018-11-22T15:07:06.124Z,10.52
2018-11-22T15:10:51.283Z,10.77
2018-11-22T15:14:55.325Z,10.84
2018-11-22T15:18:40.461Z,10.42
2018-11-22T15:22:25.681Z,10.12
2018-11-22T15:26:29.350Z,9.82
2018-11-22T15:30:33.092Z,9.66
2018-11-22T15:34:18.194Z,9.58
2018-11-22T15:38:03.402Z,9.31
2018-11-22T15:41:48.521Z,9.31
2018-11-22T15:45:34.965Z,9.06
2018-11-22T15:49:19.068Z,8.96
2018-11-22T15:53:04.471Z,8.82
2018-11-22T15:56:30.643Z,8.78
2018-11-22T16:00:18.451Z,8.65
2018-11-22T16:04:03.634Z,8.60
2018-11-22T16:07:43.148Z,8.37
2018-11-22T16:11:28.280Z,8.19
2018-11-22T16:14:54.489Z,8.21
2018-11-22T16:18:39.615Z,8.05
2018-11-22T16:22:05.912Z,7.82
2018-11-22T16:25:51.161Z,7.76
2018-11-22T16:29:36.277Z,7.62
2018-11-22T16:33:21.424Z,7.57
2018-11-22T16:37:06.549Z,7.35
2018-11-22T16:40:51.814Z,7.28
2018-11-22T16:44:55.520Z,7.13
2018-11-22T16:48:40.647Z,6.96
2018-11-22T16:52:25.873Z,6.82
2018-11-22T16:56:10.993Z,6.70
2018-11-22T16:59:56.168Z,6.70
2018-11-22T17:03:41.232Z,6.57
2018-11-22T17:07:26.532Z,6.52
2018-11-22T17:11:11.671Z,6.35
2018-11-22T17:14:56.785Z,6.28
2018-11-22T17:19:00.483Z,6.43
2018-11-22T17:22:46.367Z,6.22
2018-11-22T17:26:50.053Z,6.03
2018-11-22T17:30:39.767Z,5.88
2018-11-22T17:34:24.901Z,6.03
2018-11-22T17:38:10.959Z,5.97
2018-11-22T17:41:56.149Z,5.84
2018-11-22T17:45:42.758Z,5.97
2018-11-22T17:49:27.892Z,6.00
2018-11-22T17:53:13.500Z,5.88
2018-11-22T17:56:58.618Z,5.79
2018-11-22T18:01:02.290Z,5.79
2018-11-22T18:04:47.471Z,5.80
2018-11-22T18:08:32.641Z,5.93
2018-11-22T18:12:17.772Z,6.09
2018-11-22T18:16:02.999Z,6.38
2018-11-22T18:19:48.103Z,6.06
2018-11-22T18:23:33.593Z,5.87
2018-11-22T18:27:18.731Z,5.71
2018-11-22T18:31:03.908Z,5.67
2018-11-22T18:34:49.439Z,5.76
2018-11-22T18:38:34.660Z,5.86
2018-11-22T18:42:19.802Z,6.12
2018-11-22T18:46:05.779Z,6.21
2018-11-22T18:49:51.261Z,6.39
2018-11-22T18:53:54.928Z,6.42
2018-11-22T18:57:58.635Z,6.40
2018-11-22T19:01:45.071Z,6.31
2018-11-22T19:05:47.483Z,6.15
2018-11-22T19:09:51.572Z,6.18
2018-11-22T19:13:36.698Z,6.22
2018-11-22T19:17:22.182Z,6.27
2018-11-22T19:21:07.341Z,6.19
2018-11-22T19:24:52.736Z,6.41
2018-11-22T19:28:38.126Z,6.42
2018-11-22T19:32:23.401Z,6.43
2018-11-22T19:36:08.816Z,6.26
2018-11-22T19:39:53.990Z,6.53
2018-11-22T19:43:39.135Z,6.58
2018-11-22T19:47:24.325Z,6.35
2018-11-22T19:51:09.468Z,6.50
2018-11-22T19:55:13.154Z,6.57
2018-11-22T19:58:58.284Z,6.43
2018-11-22T20:03:01.999Z,6.33
2018-11-22T20:07:05.666Z,6.63
2018-11-22T20:10:51.308Z,6.47
2018-11-22T20:14:36.422Z,6.40
2018-11-22T20:18:40.089Z,6.29
2018-11-22T20:22:25.500Z,6.36
2018-11-22T20:26:11.033Z,6.11
2018-11-22T20:30:14.701Z,6.20
2018-11-22T20:33:59.875Z,6.36
2018-11-22T20:37:45.775Z,6.40
2018-11-22T20:41:49.433Z,6.23
2018-11-22T20:45:40.683Z,6.21
2018-11-22T20:49:20.395Z,6.22
2018-11-22T20:53:05.589Z,6.28
2018-11-22T20:56:50.776Z,6.18
2018-11-22T21:00:37.631Z,6.22
2018-11-22T21:04:03.821Z,6.08
2018-11-22T21:07:48.978Z,6.17
2018-11-22T21:11:34.095Z,6.14
2018-11-22T21:15:38.713Z,6.02
2018-11-22T21:19:23.891Z,5.97
2018-11-22T21:23:09.037Z,6.04
2018-11-22T21:26:54.623Z,6.20
2018-11-22T21:30:40.691Z,6.12
2018-11-22T21:34:26.264Z,5.99
2018-11-22T21:38:11.388Z,6.06
2018-11-22T21:42:15.079Z,6.00
2018-11-22T21:46:00.201Z,5.93
2018-11-22T21:50:06.708Z,6.10
2018-11-22T21:54:10.401Z,5.97
2018-11-22T21:57:56.675Z,5.82
2018-11-22T22:01:41.823Z,5.90
2018-11-22T22:05:26.943Z,5.90
2018-11-22T22:09:12.028Z,5.85
2018-11-22T22:12:57.184Z,5.71
2018-11-22T22:16:42.305Z,5.78
2018-11-22T22:20:46.005Z,5.93
2018-11-22T22:24:31.172Z,5.87
2018-11-22T22:28:16.619Z,5.80
2018-11-22T22:32:01.771Z,5.89
2018-11-22T22:35:46.956Z,5.91
2018-11-22T22:39:32.077Z,5.79
2018-11-22T22:43:17.170Z,5.79
2018-11-22T22:47:02.284Z,5.79
2018-11-22T22:50:47.693Z,5.92
2018-11-22T22:54:32.870Z,5.86
2018-11-22T22:58:18.024Z,5.71
2018-11-22T23:02:22.132Z,5.75
2018-11-22T23:06:07.243Z,5.74
2018-11-22T23:09:52.352Z,5.57
2018-11-22T23:13:37.474Z,5.69
2018-11-22T23:17:41.150Z,5.72
2018-11-22T23:21:26.253Z,5.59
2018-11-22T23:25:12.434Z,5.51
2018-11-22T23:28:57.547Z,5.77
2018-11-22T23:32:43.017Z,5.56
2018-11-22T23:36:28.131Z,5.28
2018-11-22T23:40:14.782Z,5.28
2018-11-22T23:44:00.176Z,5.30
2018-11-22T23:47:45.775Z,5.26
2018-11-22T23:51:30.875Z,5.34
2018-11-22T23:55:34.555Z,5.40
2018-11-22T23:59:19.759Z,5.35
